Aventura, Florida
Current Conditions -  °F | °C
As of 4:53 PM on Thursday 23 Oct 2014 (Local Time) from KHWO Reporting Station
Overcast Overcast  
Wind Chill: 24°   Ceiling: 2000
Heat Index: 24°   Visibility: 8mi
Dew Point: 22°   Wind: 12mph
Humidity: 87%   Direction: 20°NNE
Pressure: 29.89"   Gusts: NA
Location:  25.9536°N, 80.1568°W
Report Text: KHWO 232053Z 02010KT 8SM BKN020 BKN034 OVC050 24/22 A2989 RMK AO2 RAE26 SLP121 P0002 60003 T02390217 56005
Loading
Personal Weather Stations






























Interactive Weather Map
Tropical Storm Tracking
New forecast layout! Learn more

10-Day Weather Forecast

Advertisements
Track Severe Weather on mobile